sensor_id;sensor_type;location;lat;lon;timestamp;temperature;humidity
18339;DHT22;9295;44.484;11.240;2023-05-23T00:01:42;17.20;99.90
18339;DHT22;9295;44.484;11.240;2023-05-23T00:04:13;17.10;99.90
18339;DHT22;9295;44.484;11.240;2023-05-23T00:06:44;17.10;99.90
18339;DHT22;9295;44.484;11.240;2023-05-23T00:09:16;17.00;99.90
18339;DHT22;9295;44.484;11.240;2023-05-23T00:11:45;17.00;99.90
18339;DHT22;9295;44.484;11.240;2023-05-23T00:14:14;17.00;99.90
18339;DHT22;9295;44.484;11.240;2023-05-23T00:16:44;17.00;99.90
18339;DHT22;9295;44.484;11.240;2023-05-23T00:19:16;17.00;99.90
18339;DHT22;9295;44.484;11.240;2023-05-23T00:21:46;17.00;99.90
18339;DHT22;9295;44.484;11.240;2023-05-23T00:24:16;17.00;99.90
18339;DHT22;9295;44.484;11.240;2023-05-23T00:26:45;17.00;99.90
18339;DHT22;9295;44.484;11.240;2023-05-23T00:29:14;17.00;99.90
18339;DHT22;9295;44.484;11.240;2023-05-23T00:31:44;17.00;99.90
18339;DHT22;9295;44.484;11.240;2023-05-23T00:34:14;17.00;99.90
18339;DHT22;9295;44.484;11.240;2023-05-23T00:36:45;17.00;99.90
18339;DHT22;9295;44.484;11.240;2023-05-23T00:39:16;17.00;99.90
18339;DHT22;9295;44.484;11.240;2023-05-23T00:41:48;17.00;99.90
18339;DHT22;9295;44.484;11.240;2023-05-23T00:44:19;17.00;99.90
18339;DHT22;9295;44.484;11.240;2023-05-23T00:46:50;17.00;99.90
18339;DHT22;9295;44.484;11.240;2023-05-23T00:49:19;17.00;99.90
18339;DHT22;9295;44.484;11.240;2023-05-23T00:51:50;17.00;99.90
18339;DHT22;9295;44.484;11.240;2023-05-23T00:54:24;17.00;99.90
18339;DHT22;9295;44.484;11.240;2023-05-23T00:56:53;17.00;99.90
18339;DHT22;9295;44.484;11.240;2023-05-23T00:59:24;16.90;99.90
18339;DHT22;9295;44.484;11.240;2023-05-23T01:01:55;17.00;99.90
18339;DHT22;9295;44.484;11.240;2023-05-23T01:04:24;16.90;99.90
18339;DHT22;9295;44.484;11.240;2023-05-23T01:06:55;16.90;99.90
18339;DHT22;9295;44.484;11.240;2023-05-23T01:09:25;16.80;99.90
18339;DHT22;9295;44.484;11.240;2023-05-23T01:12:02;16.70;99.90
18339;DHT22;9295;44.484;11.240;2023-05-23T01:14:38;16.60;99.90
18339;DHT22;9295;44.484;11.240;2023-05-23T01:17:14;16.60;99.90
18339;DHT22;9295;44.484;11.240;2023-05-23T01:20:02;16.60;99.90
18339;DHT22;9295;44.484;11.240;2023-05-23T01:22:48;16.60;99.90
18339;DHT22;9295;44.484;11.240;2023-05-23T01:25:29;16.60;99.90
18339;DHT22;9295;44.484;11.240;2023-05-23T01:28:04;16.60;99.90
18339;DHT22;9295;44.484;11.240;2023-05-23T01:30:35;16.50;99.90
18339;DHT22;9295;44.484;11.240;2023-05-23T01:33:07;16.50;99.90
18339;DHT22;9295;44.484;11.240;2023-05-23T01:35:36;16.50;99.90
18339;DHT22;9295;44.484;11.240;2023-05-23T01:38:05;16.50;99.90
18339;DHT22;9295;44.484;11.240;2023-05-23T01:40:33;16.50;99.90
18339;DHT22;9295;44.484;11.240;2023-05-23T01:43:03;16.50;99.90
18339;DHT22;9295;44.484;11.240;2023-05-23T01:45:32;16.50;99.90
18339;DHT22;9295;44.484;11.240;2023-05-23T01:48:02;16.40;99.90
18339;DHT22;9295;44.484;11.240;2023-05-23T01:50:32;16.50;99.90
18339;DHT22;9295;44.484;11.240;2023-05-23T01:53:03;16.50;99.90
18339;DHT22;9295;44.484;11.240;2023-05-23T01:55:33;16.40;99.90
18339;DHT22;9295;44.484;11.240;2023-05-23T01:58:04;16.40;99.90
18339;DHT22;9295;44.484;11.240;2023-05-23T02:00:33;16.40;99.90
18339;DHT22;9295;44.484;11.240;2023-05-23T02:03:02;16.30;99.90
18339;DHT22;9295;44.484;11.240;2023-05-23T02:05:32;16.30;99.90
18339;DHT22;9295;44.484;11.240;2023-05-23T02:08:01;16.30;99.90
18339;DHT22;9295;44.484;11.240;2023-05-23T02:10:29;16.30;99.90
18339;DHT22;9295;44.484;11.240;2023-05-23T02:12:59;16.30;99.90
18339;DHT22;9295;44.484;11.240;2023-05-23T02:15:30;16.20;99.90
18339;DHT22;9295;44.484;11.240;2023-05-23T02:17:58;16.20;99.90
18339;DHT22;9295;44.484;11.240;2023-05-23T02:20:28;16.20;99.90
18339;DHT22;9295;44.484;11.240;2023-05-23T02:22:56;16.20;99.90
18339;DHT22;9295;44.484;11.240;2023-05-23T02:25:25;16.20;99.90
18339;DHT22;9295;44.484;11.240;2023-05-23T02:27:53;16.20;99.90
18339;DHT22;9295;44.484;11.240;2023-05-23T02:30:22;16.20;99.90
18339;DHT22;9295;44.484;11.240;2023-05-23T02:32:51;16.20;99.90
18339;DHT22;9295;44.484;11.240;2023-05-23T02:35:21;16.20;99.90
18339;DHT22;9295;44.484;11.240;2023-05-23T02:37:49;16.20;99.90
18339;DHT22;9295;44.484;11.240;2023-05-23T02:40:18;16.10;99.90
18339;DHT22;9295;44.484;11.240;2023-05-23T02:42:46;16.10;99.90
18339;DHT22;9295;44.484;11.240;2023-05-23T02:45:16;16.20;99.90
18339;DHT22;9295;44.484;11.240;2023-05-23T02:47:45;16.10;99.90
18339;DHT22;9295;44.484;11.240;2023-05-23T02:50:15;16.10;99.90
18339;DHT22;9295;44.484;11.240;2023-05-23T02:52:44;16.10;99.90
18339;DHT22;9295;44.484;11.240;2023-05-23T02:55:12;16.10;99.90
18339;DHT22;9295;44.484;11.240;2023-05-23T02:57:45;16.10;99.90
18339;DHT22;9295;44.484;11.240;2023-05-23T03:00:14;16.10;99.90
18339;DHT22;9295;44.484;11.240;2023-05-23T03:02:47;16.10;99.90
18339;DHT22;9295;44.484;11.240;2023-05-23T03:05:17;16.10;99.90
18339;DHT22;9295;44.484;11.240;2023-05-23T03:07:45;16.10;99.90
18339;DHT22;9295;44.484;11.240;2023-05-23T03:10:14;16.10;99.90
18339;DHT22;9295;44.484;11.240;2023-05-23T03:12:44;16.10;99.90
18339;DHT22;9295;44.484;11.240;2023-05-23T03:15:14;16.10;99.90
18339;DHT22;9295;44.484;11.240;2023-05-23T03:17:43;16.00;99.90
18339;DHT22;9295;44.484;11.240;2023-05-23T03:20:14;16.00;99.90
18339;DHT22;9295;44.484;11.240;2023-05-23T03:22:44;16.00;99.90
18339;DHT22;9295;44.484;11.240;2023-05-23T03:25:14;16.00;99.90
18339;DHT22;9295;44.484;11.240;2023-05-23T03:27:43;16.10;99.90
18339;DHT22;9295;44.484;11.240;2023-05-23T03:30:12;16.00;99.90
18339;DHT22;9295;44.484;11.240;2023-05-23T03:32:40;16.00;99.90
18339;DHT22;9295;44.484;11.240;2023-05-23T03:35:09;15.90;99.90
18339;DHT22;9295;44.484;11.240;2023-05-23T03:37:38;15.90;99.90
18339;DHT22;9295;44.484;11.240;2023-05-23T03:40:09;15.90;99.90
18339;DHT22;9295;44.484;11.240;2023-05-23T03:42:38;15.90;99.90
18339;DHT22;9295;44.484;11.240;2023-05-23T03:45:08;15.90;99.90
18339;DHT22;9295;44.484;11.240;2023-05-23T03:47:37;16.00;99.90
18339;DHT22;9295;44.484;11.240;2023-05-23T03:50:07;16.00;99.90
18339;DHT22;9295;44.484;11.240;2023-05-23T03:52:36;16.00;99.90
18339;DHT22;9295;44.484;11.240;2023-05-23T03:55:05;16.00;99.90
18339;DHT22;9295;44.484;11.240;2023-05-23T03:57:37;16.10;99.90
18339;DHT22;9295;44.484;11.240;2023-05-23T04:00:06;16.10;99.90
18339;DHT22;9295;44.484;11.240;2023-05-23T04:02:42;16.10;99.90
18339;DHT22;9295;44.484;11.240;2023-05-23T04:05:15;16.20;99.90
18339;DHT22;9295;44.484;11.240;2023-05-23T04:07:44;16.30;99.90
18339;DHT22;9295;44.484;11.240;2023-05-23T04:10:14;16.30;99.90
18339;DHT22;9295;44.484;11.240;2023-05-23T04:12:44;16.30;99.90
18339;DHT22;9295;44.484;11.240;2023-05-23T04:15:15;16.40;99.90
18339;DHT22;9295;44.484;11.240;2023-05-23T04:17:53;16.50;99.90
18339;DHT22;9295;44.484;11.240;2023-05-23T04:20:23;16.60;99.90
18339;DHT22;9295;44.484;11.240;2023-05-23T04:22:52;16.70;99.90
18339;DHT22;9295;44.484;11.240;2023-05-23T04:25:20;16.80;99.90
18339;DHT22;9295;44.484;11.240;2023-05-23T04:28:09;16.90;99.90
18339;DHT22;9295;44.484;11.240;2023-05-23T04:30:38;17.00;99.90
18339;DHT22;9295;44.484;11.240;2023-05-23T04:33:07;17.10;99.90
18339;DHT22;9295;44.484;11.240;2023-05-23T04:35:36;17.20;99.90
18339;DHT22;9295;44.484;11.240;2023-05-23T04:38:07;17.30;99.90
18339;DHT22;9295;44.484;11.240;2023-05-23T04:40:36;17.30;99.90
18339;DHT22;9295;44.484;11.240;2023-05-23T04:43:29;17.50;99.90
18339;DHT22;9295;44.484;11.240;2023-05-23T04:46:12;17.50;99.90
18339;DHT22;9295;44.484;11.240;2023-05-23T04:48:44;17.60;99.90
18339;DHT22;9295;44.484;11.240;2023-05-23T04:51:12;17.70;99.90
18339;DHT22;9295;44.484;11.240;2023-05-23T04:53:49;17.90;99.90
18339;DHT22;9295;44.484;11.240;2023-05-23T04:56:19;18.10;99.90
18339;DHT22;9295;44.484;11.240;2023-05-23T04:58:50;18.50;99.90
18339;DHT22;9295;44.484;11.240;2023-05-23T05:01:19;18.90;99.90
18339;DHT22;9295;44.484;11.240;2023-05-23T05:03:51;19.10;99.90
18339;DHT22;9295;44.484;11.240;2023-05-23T05:06:19;19.50;99.90
18339;DHT22;9295;44.484;11.240;2023-05-23T05:08:48;21.30;99.90
18339;DHT22;9295;44.484;11.240;2023-05-23T05:11:17;23.70;99.90
18339;DHT22;9295;44.484;11.240;2023-05-23T05:13:46;25.80;99.90
18339;DHT22;9295;44.484;11.240;2023-05-23T05:16:16;27.40;99.90
18339;DHT22;9295;44.484;11.240;2023-05-23T05:18:44;28.80;99.90
18339;DHT22;9295;44.484;11.240;2023-05-23T05:21:12;29.60;99.90
18339;DHT22;9295;44.484;11.240;2023-05-23T05:23:41;30.30;99.90
18339;DHT22;9295;44.484;11.240;2023-05-23T05:26:11;31.30;99.90
18339;DHT22;9295;44.484;11.240;2023-05-23T05:28:40;32.10;99.90
18339;DHT22;9295;44.484;11.240;2023-05-23T05:31:08;32.60;99.90
18339;DHT22;9295;44.484;11.240;2023-05-23T05:33:44;32.90;99.90
18339;DHT22;9295;44.484;11.240;2023-05-23T05:36:14;33.30;98.90
18339;DHT22;9295;44.484;11.240;2023-05-23T05:38:44;33.50;97.40
18339;DHT22;9295;44.484;11.240;2023-05-23T05:41:13;34.00;95.90
18339;DHT22;9295;44.484;11.240;2023-05-23T05:43:46;34.10;93.10
18339;DHT22;9295;44.484;11.240;2023-05-23T05:46:15;34.10;92.70
18339;DHT22;9295;44.484;11.240;2023-05-23T05:48:46;33.80;92.90
18339;DHT22;9295;44.484;11.240;2023-05-23T05:51:16;33.90;92.10
18339;DHT22;9295;44.484;11.240;2023-05-23T05:53:45;34.30;91.20
18339;DHT22;9295;44.484;11.240;2023-05-23T05:56:13;34.40;90.20
18339;DHT22;9295;44.484;11.240;2023-05-23T05:58:42;34.30;89.60
18339;DHT22;9295;44.484;11.240;2023-05-23T06:01:13;35.10;87.20
18339;DHT22;9295;44.484;11.240;2023-05-23T06:03:41;35.80;84.60
18339;DHT22;9295;44.484;11.240;2023-05-23T06:06:12;36.30;82.00
18339;DHT22;9295;44.484;11.240;2023-05-23T06:08:41;36.60;80.30
18339;DHT22;9295;44.484;11.240;2023-05-23T06:11:14;36.90;79.40
18339;DHT22;9295;44.484;11.240;2023-05-23T06:13:42;36.80;77.50
18339;DHT22;9295;44.484;11.240;2023-05-23T06:16:11;36.90;77.20
18339;DHT22;9295;44.484;11.240;2023-05-23T06:18:42;37.20;75.50
18339;DHT22;9295;44.484;11.240;2023-05-23T06:21:12;37.70;74.20
18339;DHT22;9295;44.484;11.240;2023-05-23T06:23:41;37.70;72.70
18339;DHT22;9295;44.484;11.240;2023-05-23T06:26:09;37.30;73.40
18339;DHT22;9295;44.484;11.240;2023-05-23T06:28:38;38.00;72.70
18339;DHT22;9295;44.484;11.240;2023-05-23T06:31:06;38.10;71.30
18339;DHT22;9295;44.484;11.240;2023-05-23T06:33:36;37.70;71.90
18339;DHT22;9295;44.484;11.240;2023-05-23T06:36:05;38.10;70.50
18339;DHT22;9295;44.484;11.240;2023-05-23T06:38:35;37.60;70.40
18339;DHT22;9295;44.484;11.240;2023-05-23T06:41:05;36.20;73.70
18339;DHT22;9295;44.484;11.240;2023-05-23T06:43:35;36.90;73.60
18339;DHT22;9295;44.484;11.240;2023-05-23T06:46:33;37.80;71.30
18339;DHT22;9295;44.484;11.240;2023-05-23T06:49:05;37.20;72.40
18339;DHT22;9295;44.484;11.240;2023-05-23T06:51:39;37.00;72.20
18339;DHT22;9295;44.484;11.240;2023-05-23T06:54:09;37.20;73.50
18339;DHT22;9295;44.484;11.240;2023-05-23T06:56:38;37.90;71.90
18339;DHT22;9295;44.484;11.240;2023-05-23T06:59:06;37.70;71.10
18339;DHT22;9295;44.484;11.240;2023-05-23T07:01:35;38.30;70.70
18339;DHT22;9295;44.484;11.240;2023-05-23T07:04:03;38.90;69.20
18339;DHT22;9295;44.484;11.240;2023-05-23T07:06:33;39.30;67.20
18339;DHT22;9295;44.484;11.240;2023-05-23T07:09:04;39.30;66.20
18339;DHT22;9295;44.484;11.240;2023-05-23T07:11:34;39.10;65.10
18339;DHT22;9295;44.484;11.240;2023-05-23T07:14:03;38.80;66.10
18339;DHT22;9295;44.484;11.240;2023-05-23T07:16:41;38.70;66.10
18339;DHT22;9295;44.484;11.240;2023-05-23T07:19:11;38.30;65.60
18339;DHT22;9295;44.484;11.240;2023-05-23T07:21:49;38.40;64.60
18339;DHT22;9295;44.484;11.240;2023-05-23T07:24:18;38.30;65.30
18339;DHT22;9295;44.484;11.240;2023-05-23T07:26:51;38.10;64.80
18339;DHT22;9295;44.484;11.240;2023-05-23T07:29:20;38.00;64.80
18339;DHT22;9295;44.484;11.240;2023-05-23T07:31:51;38.00;63.80
18339;DHT22;9295;44.484;11.240;2023-05-23T07:34:21;37.80;63.00
18339;DHT22;9295;44.484;11.240;2023-05-23T07:36:54;37.40;64.10
18339;DHT22;9295;44.484;11.240;2023-05-23T07:39:24;37.90;63.20
18339;DHT22;9295;44.484;11.240;2023-05-23T07:41:57;37.50;63.00
18339;DHT22;9295;44.484;11.240;2023-05-23T07:44:27;37.90;60.80
18339;DHT22;9295;44.484;11.240;2023-05-23T07:46:55;37.20;61.10
18339;DHT22;9295;44.484;11.240;2023-05-23T07:49:24;37.30;62.70
18339;DHT22;9295;44.484;11.240;2023-05-23T07:51:53;37.10;63.80
18339;DHT22;9295;44.484;11.240;2023-05-23T07:54:22;36.10;65.80
18339;DHT22;9295;44.484;11.240;2023-05-23T07:56:56;35.30;68.00
18339;DHT22;9295;44.484;11.240;2023-05-23T07:59:25;34.50;71.50
18339;DHT22;9295;44.484;11.240;2023-05-23T08:01:54;34.00;74.30
18339;DHT22;9295;44.484;11.240;2023-05-23T08:04:25;33.50;76.00
18339;DHT22;9295;44.484;11.240;2023-05-23T08:06:54;33.60;77.00
18339;DHT22;9295;44.484;11.240;2023-05-23T08:09:32;33.20;78.90
18339;DHT22;9295;44.484;11.240;2023-05-23T08:12:02;32.90;81.50
18339;DHT22;9295;44.484;11.240;2023-05-23T08:14:31;32.80;77.90
18339;DHT22;9295;44.484;11.240;2023-05-23T08:17:22;32.50;78.20
18339;DHT22;9295;44.484;11.240;2023-05-23T08:19:52;32.00;80.20
18339;DHT22;9295;44.484;11.240;2023-05-23T08:22:20;31.90;80.10
18339;DHT22;9295;44.484;11.240;2023-05-23T08:24:49;31.90;81.40
18339;DHT22;9295;44.484;11.240;2023-05-23T08:27:19;31.70;80.60
18339;DHT22;9295;44.484;11.240;2023-05-23T08:29:52;31.60;82.40
18339;DHT22;9295;44.484;11.240;2023-05-23T08:32:22;31.70;83.60
18339;DHT22;9295;44.484;11.240;2023-05-23T08:34:50;31.70;82.50
18339;DHT22;9295;44.484;11.240;2023-05-23T08:37:19;31.60;83.10
18339;DHT22;9295;44.484;11.240;2023-05-23T08:39:47;31.50;83.00
18339;DHT22;9295;44.484;11.240;2023-05-23T08:42:38;31.40;83.70
18339;DHT22;9295;44.484;11.240;2023-05-23T08:45:09;31.50;83.70
18339;DHT22;9295;44.484;11.240;2023-05-23T08:47:41;31.60;83.90
18339;DHT22;9295;44.484;11.240;2023-05-23T08:50:11;31.70;84.40
18339;DHT22;9295;44.484;11.240;2023-05-23T08:52:43;31.90;84.70
18339;DHT22;9295;44.484;11.240;2023-05-23T08:55:12;32.00;83.60
18339;DHT22;9295;44.484;11.240;2023-05-23T08:57:43;32.10;84.00
18339;DHT22;9295;44.484;11.240;2023-05-23T09:00:26;31.20;85.40
18339;DHT22;9295;44.484;11.240;2023-05-23T09:02:56;30.70;89.30
18339;DHT22;9295;44.484;11.240;2023-05-23T09:05:57;31.10;90.20
18339;DHT22;9295;44.484;11.240;2023-05-23T09:08:27;31.50;86.70
18339;DHT22;9295;44.484;11.240;2023-05-23T09:10:58;31.70;85.80
18339;DHT22;9295;44.484;11.240;2023-05-23T09:13:31;31.80;85.70
18339;DHT22;9295;44.484;11.240;2023-05-23T09:16:04;32.00;86.10
18339;DHT22;9295;44.484;11.240;2023-05-23T09:18:44;32.10;85.90
18339;DHT22;9295;44.484;11.240;2023-05-23T09:21:15;32.10;86.40
18339;DHT22;9295;44.484;11.240;2023-05-23T09:23:57;32.00;85.20
18339;DHT22;9295;44.484;11.240;2023-05-23T09:26:26;31.90;85.00
18339;DHT22;9295;44.484;11.240;2023-05-23T09:28:57;31.80;85.20
18339;DHT22;9295;44.484;11.240;2023-05-23T09:31:26;31.70;85.00
18339;DHT22;9295;44.484;11.240;2023-05-23T09:33:57;31.40;86.00
18339;DHT22;9295;44.484;11.240;2023-05-23T09:36:27;31.30;86.60
18339;DHT22;9295;44.484;11.240;2023-05-23T09:39:01;31.30;85.10
18339;DHT22;9295;44.484;11.240;2023-05-23T09:41:32;31.40;85.00
18339;DHT22;9295;44.484;11.240;2023-05-23T09:44:07;31.30;84.50
18339;DHT22;9295;44.484;11.240;2023-05-23T09:46:36;31.20;84.10
18339;DHT22;9295;44.484;11.240;2023-05-23T09:49:15;31.20;83.80
18339;DHT22;9295;44.484;11.240;2023-05-23T09:51:56;31.10;84.00
18339;DHT22;9295;44.484;11.240;2023-05-23T09:54:25;31.00;84.30
18339;DHT22;9295;44.484;11.240;2023-05-23T09:56:54;30.90;84.60
18339;DHT22;9295;44.484;11.240;2023-05-23T09:59:27;30.70;83.60
18339;DHT22;9295;44.484;11.240;2023-05-23T10:01:56;30.50;82.60
18339;DHT22;9295;44.484;11.240;2023-05-23T10:04:30;30.30;82.60
18339;DHT22;9295;44.484;11.240;2023-05-23T10:07:03;30.30;82.70
18339;DHT22;9295;44.484;11.240;2023-05-23T10:09:35;30.30;83.20
18339;DHT22;9295;44.484;11.240;2023-05-23T10:15:13;30.20;83.90
18339;DHT22;9295;44.484;11.240;2023-05-23T10:18:11;30.10;83.60
18339;DHT22;9295;44.484;11.240;2023-05-23T10:20:44;30.00;85.50
18339;DHT22;9295;44.484;11.240;2023-05-23T10:23:15;30.10;84.10
18339;DHT22;9295;44.484;11.240;2023-05-23T10:25:44;30.00;83.10
18339;DHT22;9295;44.484;11.240;2023-05-23T10:28:14;30.00;84.40
18339;DHT22;9295;44.484;11.240;2023-05-23T10:30:44;29.90;83.80
18339;DHT22;9295;44.484;11.240;2023-05-23T10:33:14;29.90;84.30
18339;DHT22;9295;44.484;11.240;2023-05-23T10:35:52;29.70;83.80
18339;DHT22;9295;44.484;11.240;2023-05-23T10:38:30;29.70;85.40
18339;DHT22;9295;44.484;11.240;2023-05-23T10:41:06;29.70;85.50
18339;DHT22;9295;44.484;11.240;2023-05-23T10:43:43;29.60;86.00
18339;DHT22;9295;44.484;11.240;2023-05-23T10:46:13;29.60;86.30
18339;DHT22;9295;44.484;11.240;2023-05-23T10:48:43;29.60;85.70
18339;DHT22;9295;44.484;11.240;2023-05-23T10:51:12;29.60;86.80
18339;DHT22;9295;44.484;11.240;2023-05-23T10:53:53;29.50;84.60
18339;DHT22;9295;44.484;11.240;2023-05-23T10:56:22;29.50;86.00
18339;DHT22;9295;44.484;11.240;2023-05-23T10:58:55;29.30;86.50
18339;DHT22;9295;44.484;11.240;2023-05-23T11:01:26;29.40;86.60
18339;DHT22;9295;44.484;11.240;2023-05-23T11:03:54;29.20;85.60
18339;DHT22;9295;44.484;11.240;2023-05-23T11:06:30;29.30;87.20
18339;DHT22;9295;44.484;11.240;2023-05-23T11:09:03;29.40;86.60
18339;DHT22;9295;44.484;11.240;2023-05-23T11:11:52;29.20;85.30
18339;DHT22;9295;44.484;11.240;2023-05-23T11:14:31;29.20;85.40
18339;DHT22;9295;44.484;11.240;2023-05-23T11:17:14;29.20;85.70
18339;DHT22;9295;44.484;11.240;2023-05-23T11:19:58;29.10;84.90
18339;DHT22;9295;44.484;11.240;2023-05-23T11:22:27;29.10;84.80
18339;DHT22;9295;44.484;11.240;2023-05-23T11:24:57;29.00;85.50
18339;DHT22;9295;44.484;11.240;2023-05-23T11:27:27;29.00;85.90
18339;DHT22;9295;44.484;11.240;2023-05-23T11:29:57;28.90;85.60
18339;DHT22;9295;44.484;11.240;2023-05-23T11:32:28;28.70;83.90
18339;DHT22;9295;44.484;11.240;2023-05-23T11:35:01;28.70;83.70
18339;DHT22;9295;44.484;11.240;2023-05-23T11:37:30;28.90;84.20
18339;DHT22;9295;44.484;11.240;2023-05-23T11:40:00;28.90;82.60
18339;DHT22;9295;44.484;11.240;2023-05-23T11:42:47;28.90;83.10
18339;DHT22;9295;44.484;11.240;2023-05-23T11:45:18;29.10;83.60
18339;DHT22;9295;44.484;11.240;2023-05-23T11:47:48;29.30;83.50
18339;DHT22;9295;44.484;11.240;2023-05-23T11:50:17;29.40;82.60
18339;DHT22;9295;44.484;11.240;2023-05-23T11:52:46;29.40;83.10
18339;DHT22;9295;44.484;11.240;2023-05-23T11:55:18;29.50;83.50
18339;DHT22;9295;44.484;11.240;2023-05-23T11:57:47;29.50;84.20
18339;DHT22;9295;44.484;11.240;2023-05-23T12:00:16;29.60;83.60
18339;DHT22;9295;44.484;11.240;2023-05-23T12:02:46;29.50;85.20
18339;DHT22;9295;44.484;11.240;2023-05-23T12:05:16;29.40;87.10
18339;DHT22;9295;44.484;11.240;2023-05-23T12:07:47;29.50;86.70
18339;DHT22;9295;44.484;11.240;2023-05-23T12:10:16;29.60;87.30
18339;DHT22;9295;44.484;11.240;2023-05-23T12:12:47;29.70;86.80
18339;DHT22;9295;44.484;11.240;2023-05-23T12:15:15;29.70;86.40
18339;DHT22;9295;44.484;11.240;2023-05-23T12:17:45;29.50;85.30
18339;DHT22;9295;44.484;11.240;2023-05-23T12:20:16;29.40;85.40
18339;DHT22;9295;44.484;11.240;2023-05-23T12:22:44;29.60;85.10
18339;DHT22;9295;44.484;11.240;2023-05-23T12:25:14;29.50;84.10
18339;DHT22;9295;44.484;11.240;2023-05-23T12:27:42;29.30;84.40
18339;DHT22;9295;44.484;11.240;2023-05-23T12:30:13;29.10;84.70
18339;DHT22;9295;44.484;11.240;2023-05-23T12:32:44;29.10;85.20
18339;DHT22;9295;44.484;11.240;2023-05-23T12:35:15;29.20;86.50
18339;DHT22;9295;44.484;11.240;2023-05-23T12:37:45;29.30;85.70
18339;DHT22;9295;44.484;11.240;2023-05-23T12:40:15;29.40;85.10
18339;DHT22;9295;44.484;11.240;2023-05-23T12:42:51;29.50;85.90
18339;DHT22;9295;44.484;11.240;2023-05-23T12:45:22;29.50;85.20
18339;DHT22;9295;44.484;11.240;2023-05-23T12:47:51;29.20;84.80
18339;DHT22;9295;44.484;11.240;2023-05-23T12:50:22;29.20;85.90
18339;DHT22;9295;44.484;11.240;2023-05-23T12:52:51;29.30;85.20
18339;DHT22;9295;44.484;11.240;2023-05-23T12:55:19;29.30;85.00
18339;DHT22;9295;44.484;11.240;2023-05-23T12:57:48;29.30;84.60
18339;DHT22;9295;44.484;11.240;2023-05-23T13:00:17;29.00;85.30
18339;DHT22;9295;44.484;11.240;2023-05-23T13:02:47;28.80;86.10
18339;DHT22;9295;44.484;11.240;2023-05-23T13:05:16;28.90;87.00
18339;DHT22;9295;44.484;11.240;2023-05-23T13:07:47;29.00;87.50
18339;DHT22;9295;44.484;11.240;2023-05-23T13:10:16;29.10;89.00
18339;DHT22;9295;44.484;11.240;2023-05-23T13:12:44;29.20;87.10
18339;DHT22;9295;44.484;11.240;2023-05-23T13:15:13;29.10;87.20
18339;DHT22;9295;44.484;11.240;2023-05-23T13:17:42;29.10;86.30
18339;DHT22;9295;44.484;11.240;2023-05-23T13:20:17;28.90;87.10
18339;DHT22;9295;44.484;11.240;2023-05-23T13:22:47;28.90;86.50
18339;DHT22;9295;44.484;11.240;2023-05-23T13:25:15;28.90;87.90
18339;DHT22;9295;44.484;11.240;2023-05-23T13:27:45;28.80;87.10
18339;DHT22;9295;44.484;11.240;2023-05-23T13:30:15;28.80;86.30
18339;DHT22;9295;44.484;11.240;2023-05-23T13:32:44;28.70;87.90
18339;DHT22;9295;44.484;11.240;2023-05-23T13:35:13;28.90;87.90
18339;DHT22;9295;44.484;11.240;2023-05-23T13:37:41;28.80;86.10
18339;DHT22;9295;44.484;11.240;2023-05-23T13:40:16;28.90;85.80
18339;DHT22;9295;44.484;11.240;2023-05-23T13:42:46;28.90;87.30
18339;DHT22;9295;44.484;11.240;2023-05-23T13:45:15;29.00;86.80
18339;DHT22;9295;44.484;11.240;2023-05-23T13:47:44;29.10;86.50
18339;DHT22;9295;44.484;11.240;2023-05-23T13:50:13;29.20;87.20
18339;DHT22;9295;44.484;11.240;2023-05-23T13:52:42;29.30;86.50
18339;DHT22;9295;44.484;11.240;2023-05-23T13:55:16;29.40;86.20
18339;DHT22;9295;44.484;11.240;2023-05-23T13:57:45;29.40;85.90
18339;DHT22;9295;44.484;11.240;2023-05-23T14:00:14;29.30;86.50
18339;DHT22;9295;44.484;11.240;2023-05-23T14:02:43;29.20;86.90
18339;DHT22;9295;44.484;11.240;2023-05-23T14:05:12;29.30;87.90
18339;DHT22;9295;44.484;11.240;2023-05-23T14:07:41;29.10;87.40
18339;DHT22;9295;44.484;11.240;2023-05-23T14:10:13;28.90;87.30
18339;DHT22;9295;44.484;11.240;2023-05-23T14:12:44;28.90;88.90
18339;DHT22;9295;44.484;11.240;2023-05-23T14:15:14;28.70;84.90
18339;DHT22;9295;44.484;11.240;2023-05-23T14:17:43;28.80;87.00
18339;DHT22;9295;44.484;11.240;2023-05-23T14:20:12;28.90;88.10
18339;DHT22;9295;44.484;11.240;2023-05-23T14:22:41;28.80;86.20
18339;DHT22;9295;44.484;11.240;2023-05-23T14:25:09;28.70;86.90
18339;DHT22;9295;44.484;11.240;2023-05-23T14:27:38;28.80;86.40
18339;DHT22;9295;44.484;11.240;2023-05-23T14:30:09;29.00;86.80
18339;DHT22;9295;44.484;11.240;2023-05-23T14:32:37;29.20;86.20
18339;DHT22;9295;44.484;11.240;2023-05-23T14:35:08;29.10;85.30
18339;DHT22;9295;44.484;11.240;2023-05-23T14:37:37;29.10;86.30
18339;DHT22;9295;44.484;11.240;2023-05-23T14:40:06;29.20;86.90
18339;DHT22;9295;44.484;11.240;2023-05-23T14:42:36;29.20;87.80
18339;DHT22;9295;44.484;11.240;2023-05-23T14:45:05;29.10;86.90
18339;DHT22;9295;44.484;11.240;2023-05-23T14:47:35;29.10;86.30
18339;DHT22;9295;44.484;11.240;2023-05-23T14:50:04;29.00;87.30
18339;DHT22;9295;44.484;11.240;2023-05-23T14:52:33;29.10;87.70
18339;DHT22;9295;44.484;11.240;2023-05-23T14:55:01;29.10;88.00
18339;DHT22;9295;44.484;11.240;2023-05-23T14:57:29;29.10;86.50
18339;DHT22;9295;44.484;11.240;2023-05-23T14:59:58;29.00;86.60
18339;DHT22;9295;44.484;11.240;2023-05-23T15:02:26;28.90;86.90
18339;DHT22;9295;44.484;11.240;2023-05-23T15:05:03;28.80;87.50
18339;DHT22;9295;44.484;11.240;2023-05-23T15:07:31;28.80;87.60
18339;DHT22;9295;44.484;11.240;2023-05-23T15:10:00;28.90;87.60
18339;DHT22;9295;44.484;11.240;2023-05-23T15:12:29;29.00;87.20
18339;DHT22;9295;44.484;11.240;2023-05-23T15:14:58;29.00;87.00
18339;DHT22;9295;44.484;11.240;2023-05-23T15:17:32;29.10;86.70
18339;DHT22;9295;44.484;11.240;2023-05-23T15:20:03;29.20;86.90
18339;DHT22;9295;44.484;11.240;2023-05-23T15:22:33;29.20;86.10
18339;DHT22;9295;44.484;11.240;2023-05-23T15:25:07;29.30;86.00
18339;DHT22;9295;44.484;11.240;2023-05-23T15:27:35;29.40;85.90
18339;DHT22;9295;44.484;11.240;2023-05-23T15:30:04;29.50;86.40
18339;DHT22;9295;44.484;11.240;2023-05-23T15:32:33;29.50;85.80
18339;DHT22;9295;44.484;11.240;2023-05-23T15:35:03;29.50;85.90
18339;DHT22;9295;44.484;11.240;2023-05-23T15:37:32;29.40;86.30
18339;DHT22;9295;44.484;11.240;2023-05-23T15:40:01;29.30;86.00
18339;DHT22;9295;44.484;11.240;2023-05-23T15:42:30;29.40;85.50
18339;DHT22;9295;44.484;11.240;2023-05-23T15:44:58;29.30;86.10
18339;DHT22;9295;44.484;11.240;2023-05-23T15:47:27;29.10;86.00
18339;DHT22;9295;44.484;11.240;2023-05-23T15:49:55;29.10;87.10
18339;DHT22;9295;44.484;11.240;2023-05-23T15:52:25;29.10;87.20
18339;DHT22;9295;44.484;11.240;2023-05-23T15:54:54;29.00;86.50
18339;DHT22;9295;44.484;11.240;2023-05-23T15:57:23;29.00;86.00